Time;durP1;ratioP1;P1;durP2;ratioP2;P2;SDS_P1;SDS_P2;PMS_P1;PMS_P2;Temp;Humidity;BMP_temperature;BMP_pressure;BME280_temperature;BME280_humidity;BME280_pressure;Samples;Min_cycle;Max_cycle;Signal;HPM_P1;HPM_P2
2023/07/31 00:02:04;;;;;;;11.15;6.00;;;18.70;99.90;;;;;;5073064;28;20027;-75
2023/07/31 00:04:29;;;;;;;7.20;5.07;;;18.70;99.90;;;;;;5069675;28;20061;-75
2023/07/31 00:06:55;;;;;;;6.13;5.03;;;18.70;99.90;;;;;;5071338;28;20097;-73
2023/07/31 00:09:21;;;;;;;7.70;4.50;;;18.70;99.90;;;;;;5069868;28;20029;-75
2023/07/31 00:11:46;;;;;;;9.10;4.47;;;18.70;99.90;;;;;;5072184;28;20016;-75
2023/07/31 00:14:12;;;;;;;11.20;5.25;;;18.60;99.90;;;;;;5069304;28;20017;-73
2023/07/31 00:16:37;;;;;;;8.30;4.35;;;18.60;99.90;;;;;;5066010;28;20017;-74
2023/07/31 00:19:03;;;;;;;6.60;4.78;;;18.50;99.90;;;;;;5060951;28;20099;-75
2023/07/31 00:21:29;;;;;;;8.40;4.80;;;18.60;99.90;;;;;;5062385;28;20029;-75
2023/07/31 00:23:54;;;;;;;9.55;4.95;;;18.50;99.90;;;;;;5067610;28;20057;-76
2023/07/31 00:26:20;;;;;;;8.35;5.15;;;18.60;99.90;;;;;;5069829;28;20561;-74
2023/07/31 00:28:45;;;;;;;11.60;5.45;;;18.50;99.90;;;;;;5067510;28;20040;-73
2023/07/31 00:31:11;;;;;;;9.05;5.22;;;18.50;99.90;;;;;;5063372;28;20017;-73
2023/07/31 00:33:38;;;;;;;8.82;4.40;;;18.50;99.90;;;;;;5066068;28;20047;-75
2023/07/31 00:36:03;;;;;;;7.18;4.07;;;18.50;99.90;;;;;;5070581;28;20410;-76
2023/07/31 00:38:29;;;;;;;10.70;5.45;;;18.50;99.90;;;;;;5066024;28;20025;-74
2023/07/31 00:40:55;;;;;;;8.52;4.68;;;18.40;99.90;;;;;;5070963;28;20024;-74
2023/07/31 00:43:20;;;;;;;12.48;5.03;;;18.40;99.90;;;;;;5066140;28;20040;-73
2023/07/31 00:45:46;;;;;;;11.93;5.05;;;18.40;99.90;;;;;;5070384;28;20052;-74
2023/07/31 00:48:12;;;;;;;12.45;5.05;;;18.40;99.90;;;;;;5067493;28;20071;-75
2023/07/31 00:50:38;;;;;;;9.30;5.07;;;18.40;99.90;;;;;;5069138;28;20020;-75
2023/07/31 00:53:04;;;;;;;10.07;5.55;;;18.40;99.90;;;;;;5067505;28;20029;-74
2023/07/31 00:55:30;;;;;;;9.55;4.40;;;18.40;99.90;;;;;;5069537;28;20065;-75
2023/07/31 00:57:56;;;;;;;7.68;5.03;;;18.40;99.90;;;;;;5068145;28;20040;-74
2023/07/31 01:00:22;;;;;;;9.88;5.03;;;18.40;99.90;;;;;;5071564;28;20024;-74
2023/07/31 01:02:51;;;;;;;10.43;4.80;;;18.40;99.90;;;;;;5068374;28;20033;-74
2023/07/31 01:05:29;;;;;;;9.77;5.13;;;18.30;99.90;;;;;;5070207;28;20038;-73
2023/07/31 01:08:26;;;;;;;10.10;5.22;;;18.30;99.90;;;;;;5066948;28;20101;-75
2023/07/31 01:11:00;;;;;;;8.18;4.53;;;18.30;99.90;;;;;;5067809;28;20025;-75
2023/07/31 01:13:26;;;;;;;12.45;5.20;;;18.30;99.90;;;;;;5050103;28;20021;-75
2023/07/31 01:15:52;;;;;;;6.57;4.70;;;18.30;99.90;;;;;;5066025;28;20126;-76
2023/07/31 01:18:17;;;;;;;10.52;4.75;;;18.20;99.90;;;;;;5072190;28;20032;-74
2023/07/31 01:20:53;;;;;;;12.77;5.78;;;18.20;99.90;;;;;;5054167;28;20034;-74
2023/07/31 01:23:47;;;;;;;10.30;5.45;;;18.20;99.90;;;;;;5071906;28;20052;-75
2023/07/31 01:26:21;;;;;;;9.35;6.30;;;18.10;99.90;;;;;;5069007;28;20170;-74
2023/07/31 01:29:22;;;;;;;9.98;4.95;;;18.10;99.90;;;;;;5067196;28;20029;-75
2023/07/31 01:31:49;;;;;;;14.30;5.75;;;18.10;99.90;;;;;;5063223;28;20068;-74
2023/07/31 01:34:18;;;;;;;8.70;4.60;;;18.10;99.90;;;;;;5070105;28;20071;-74
2023/07/31 01:36:44;;;;;;;8.23;5.20;;;18.10;99.90;;;;;;5068230;28;20083;-74
2023/07/31 01:39:09;;;;;;;9.32;5.28;;;18.00;99.90;;;;;;5070316;28;20477;-74
2023/07/31 01:41:35;;;;;;;9.75;4.72;;;18.10;99.90;;;;;;5068962;28;20028;-75
2023/07/31 01:44:00;;;;;;;8.27;5.40;;;18.00;99.90;;;;;;5070869;28;20550;-75
2023/07/31 01:46:26;;;;;;;8.38;5.68;;;18.00;99.90;;;;;;5068505;28;20048;-75
2023/07/31 01:48:52;;;;;;;12.50;5.20;;;17.90;99.90;;;;;;5068935;28;20024;-75
2023/07/31 01:51:17;;;;;;;9.75;5.80;;;17.90;99.90;;;;;;5067566;28;20040;-75
2023/07/31 01:53:43;;;;;;;11.27;5.80;;;17.90;99.90;;;;;;5070750;28;20027;-75
2023/07/31 01:56:09;;;;;;;11.07;6.30;;;17.80;99.90;;;;;;5068819;28;20037;-74
2023/07/31 01:58:34;;;;;;;11.80;5.60;;;17.80;99.90;;;;;;5070361;28;20023;-75
2023/07/31 02:01:00;;;;;;;8.63;5.35;;;17.80;99.90;;;;;;5068373;28;20489;-73
2023/07/31 02:03:26;;;;;;;9.18;5.18;;;17.80;99.90;;;;;;5069068;28;20032;-75
2023/07/31 02:05:51;;;;;;;7.18;5.07;;;17.70;99.90;;;;;;5065482;28;20039;-75
2023/07/31 02:08:17;;;;;;;9.80;5.53;;;17.70;99.90;;;;;;5066967;28;20024;-74
2023/07/31 02:10:43;;;;;;;10.05;5.88;;;17.60;99.90;;;;;;5066402;28;20028;-75
2023/07/31 02:13:08;;;;;;;8.23;4.88;;;17.60;99.90;;;;;;5066492;28;20020;-74
2023/07/31 02:15:34;;;;;;;12.75;5.75;;;17.60;99.90;;;;;;5065795;28;20035;-74
2023/07/31 02:18:00;;;;;;;9.68;5.43;;;17.60;99.90;;;;;;5067187;28;20020;-75
2023/07/31 02:20:25;;;;;;;11.15;4.75;;;17.60;99.90;;;;;;5062034;28;20151;-75
2023/07/31 02:22:51;;;;;;;11.18;5.25;;;17.50;99.90;;;;;;5063798;28;20087;-75
2023/07/31 02:25:17;;;;;;;13.90;5.43;;;17.50;99.90;;;;;;5069104;28;20029;-73
2023/07/31 02:27:42;;;;;;;12.43;5.85;;;17.40;99.90;;;;;;5068058;28;20024;-74
2023/07/31 02:30:08;;;;;;;7.63;5.32;;;17.40;99.90;;;;;;5068640;28;20035;-74
2023/07/31 02:32:34;;;;;;;8.10;5.35;;;17.40;99.90;;;;;;5070145;28;20017;-74
2023/07/31 02:35:00;;;;;;;10.73;5.75;;;17.30;99.90;;;;;;5071891;28;20084;-74
2023/07/31 02:37:26;;;;;;;9.60;5.30;;;17.30;99.90;;;;;;5067341;28;20048;-74
2023/07/31 02:39:51;;;;;;;11.50;5.50;;;17.20;99.90;;;;;;5067703;28;20029;-74
2023/07/31 02:42:17;;;;;;;10.48;5.80;;;17.20;99.90;;;;;;5073525;28;20104;-74
2023/07/31 02:44:43;;;;;;;12.35;5.40;;;17.20;99.90;;;;;;5069900;28;20053;-75
2023/07/31 02:47:08;;;;;;;11.45;5.15;;;17.10;99.90;;;;;;5071944;28;20028;-74
2023/07/31 02:49:34;;;;;;;10.60;5.72;;;17.10;99.90;;;;;;5071918;28;20036;-74
2023/07/31 02:52:00;;;;;;;8.95;5.95;;;17.10;99.90;;;;;;5067034;28;20016;-74
2023/07/31 02:54:25;;;;;;;14.20;5.82;;;17.10;99.90;;;;;;5068850;28;20111;-74
2023/07/31 02:56:51;;;;;;;9.18;6.50;;;17.10;99.90;;;;;;5067007;28;20091;-75
2023/07/31 02:59:18;;;;;;;15.52;7.78;;;17.10;99.90;;;;;;5060296;28;20032;-74
2023/07/31 03:01:44;;;;;;;14.45;7.97;;;17.00;99.90;;;;;;5067202;28;20017;-74
2023/07/31 03:04:09;;;;;;;15.43;10.15;;;17.10;99.90;;;;;;5069245;28;20031;-75
2023/07/31 03:06:35;;;;;;;17.10;9.50;;;17.10;99.90;;;;;;5063610;28;20092;-74
2023/07/31 03:09:00;;;;;;;22.55;11.10;;;17.10;99.90;;;;;;5057874;28;20081;-74
2023/07/31 03:11:26;;;;;;;14.98;9.20;;;17.10;99.90;;;;;;5056821;28;20100;-74
2023/07/31 03:13:52;;;;;;;17.35;9.95;;;17.00;99.90;;;;;;5057512;28;20028;-74
2023/07/31 03:16:17;;;;;;;17.48;9.85;;;16.90;99.90;;;;;;5056191;28;20115;-74
2023/07/31 03:18:43;;;;;;;16.67;10.43;;;16.90;99.90;;;;;;5056327;28;20051;-74
2023/07/31 03:21:09;;;;;;;18.90;9.52;;;16.80;99.90;;;;;;5054610;28;20021;-74
2023/07/31 03:23:34;;;;;;;13.95;8.48;;;16.70;99.90;;;;;;5056398;28;20056;-75
2023/07/31 03:26:03;;;;;;;13.50;8.40;;;16.70;99.90;;;;;;5055898;28;20040;-74
2023/07/31 03:28:29;;;;;;;15.23;7.30;;;16.60;99.90;;;;;;5056467;28;20043;-74
2023/07/31 03:30:55;;;;;;;13.90;6.82;;;16.60;99.90;;;;;;5055378;28;20031;-74
2023/07/31 03:33:21;;;;;;;11.82;7.45;;;16.60;99.90;;;;;;5056695;28;20080;-74
2023/07/31 03:35:46;;;;;;;10.43;6.05;;;16.60;99.90;;;;;;5054549;28;20526;-74
2023/07/31 03:38:12;;;;;;;9.38;5.85;;;16.60;99.90;;;;;;5055809;28;20049;-74
2023/07/31 03:40:38;;;;;;;13.13;5.93;;;16.60;99.90;;;;;;5064829;28;20032;-74
2023/07/31 03:43:04;;;;;;;9.90;5.22;;;16.60;99.90;;;;;;5058000;28;20028;-76
2023/07/31 03:45:30;;;;;;;13.40;5.90;;;16.60;99.90;;;;;;5054638;28;20051;-75
2023/07/31 03:47:56;;;;;;;9.70;4.88;;;16.50;99.90;;;;;;5053504;28;20037;-74
2023/07/31 03:50:22;;;;;;;11.13;5.75;;;16.50;99.90;;;;;;5054632;28;20108;-74
2023/07/31 03:52:47;;;;;;;13.23;4.95;;;16.60;99.90;;;;;;5070091;28;20032;-74
2023/07/31 03:55:13;;;;;;;9.60;5.40;;;16.60;99.90;;;;;;5075152;28;20028;-75
2023/07/31 03:57:38;;;;;;;8.45;5.22;;;16.60;99.90;;;;;;5077024;28;20051;-74
2023/07/31 04:00:05;;;;;;;10.13;5.15;;;16.60;99.90;;;;;;5077818;28;20113;-74
2023/07/31 04:02:30;;;;;;;8.63;5.15;;;16.60;99.90;;;;;;5077566;28;20028;-74
2023/07/31 04:04:56;;;;;;;12.85;5.30;;;16.60;99.90;;;;;;5076267;28;20599;-74
2023/07/31 04:07:22;;;;;;;12.65;5.10;;;16.50;99.90;;;;;;5077552;28;20496;-74
2023/07/31 04:09:47;;;;;;;9.98;5.32;;;16.50;99.90;;;;;;5067818;28;20054;-74
2023/07/31 04:12:13;;;;;;;9.50;4.93;;;16.50;99.90;;;;;;5056582;28;20088;-74
2023/07/31 04:14:38;;;;;;;7.10;5.22;;;16.50;99.90;;;;;;5058133;28;20027;-74
2023/07/31 04:17:04;;;;;;;11.15;5.55;;;16.50;99.90;;;;;;5058958;28;20092;-75
2023/07/31 04:19:30;;;;;;;11.25;5.30;;;16.50;99.90;;;;;;5058713;28;20028;-74
2023/07/31 04:21:55;;;;;;;9.90;5.45;;;16.40;99.90;;;;;;5059456;28;20035;-75
2023/07/31 04:24:24;;;;;;;10.30;5.65;;;16.40;99.90;;;;;;5058367;28;20048;-74
2023/07/31 04:26:53;;;;;;;9.40;5.43;;;16.40;99.90;;;;;;5059416;28;20073;-75
2023/07/31 04:29:19;;;;;;;10.32;5.53;;;16.30;99.90;;;;;;5057099;28;20025;-74
2023/07/31 04:31:45;;;;;;;9.70;5.30;;;16.30;99.90;;;;;;5058507;28;20016;-75
2023/07/31 04:34:11;;;;;;;10.02;4.95;;;16.30;99.90;;;;;;5058159;28;20076;-74
2023/07/31 04:36:37;;;;;;;10.63;5.70;;;16.30;99.90;;;;;;5068139;28;20507;-74
2023/07/31 04:39:03;;;;;;;10.93;5.88;;;16.30;99.90;;;;;;5067627;28;20031;-74
2023/07/31 04:41:29;;;;;;;10.82;5.45;;;16.30;99.90;;;;;;5063056;28;20024;-75
2023/07/31 04:43:55;;;;;;;8.50;5.30;;;16.30;99.90;;;;;;5061948;28;20027;-75
2023/07/31 04:46:20;;;;;;;7.15;5.32;;;16.30;99.90;;;;;;5069001;28;20451;-74
2023/07/31 04:48:46;;;;;;;10.38;5.13;;;16.30;99.90;;;;;;5067921;28;20469;-75
2023/07/31 04:51:12;;;;;;;13.07;6.20;;;16.20;99.90;;;;;;5069492;28;20025;-74
2023/07/31 04:53:37;;;;;;;10.23;5.45;;;16.30;99.90;;;;;;5065148;28;20033;-75
2023/07/31 04:56:03;;;;;;;9.18;4.85;;;16.30;99.90;;;;;;5052394;28;20032;-74
2023/07/31 04:58:29;;;;;;;9.52;4.93;;;16.30;99.90;;;;;;5061527;28;20439;-75
2023/07/31 05:00:55;;;;;;;12.38;5.30;;;16.30;99.90;;;;;;5048103;28;20028;-75
2023/07/31 05:03:20;;;;;;;12.07;4.90;;;16.30;99.90;;;;;;5061374;28;20037;-75
2023/07/31 05:05:46;;;;;;;9.45;5.20;;;16.40;99.90;;;;;;5065531;28;20034;-76
2023/07/31 05:08:11;;;;;;;8.00;4.88;;;16.40;99.90;;;;;;5061326;28;20029;-75
2023/07/31 05:10:37;;;;;;;11.30;4.80;;;16.40;99.90;;;;;;5072023;28;20025;-75
2023/07/31 05:13:03;;;;;;;9.35;5.30;;;16.40;99.90;;;;;;5073737;28;20051;-74
2023/07/31 05:15:29;;;;;;;15.80;5.25;;;16.50;99.90;;;;;;5072746;28;20028;-74
2023/07/31 05:17:54;;;;;;;14.32;6.72;;;16.50;99.90;;;;;;5074582;28;20063;-74
2023/07/31 05:20:21;;;;;;;12.32;4.88;;;16.50;99.90;;;;;;5068944;28;20029;-73
2023/07/31 05:22:46;;;;;;;9.05;4.90;;;16.50;99.90;;;;;;5074505;28;20511;-74
2023/07/31 05:25:13;;;;;;;10.73;5.43;;;16.60;99.90;;;;;;5072463;28;20028;-73
2023/07/31 05:27:38;;;;;;;12.48;4.90;;;16.60;99.90;;;;;;5074719;28;20068;-74
2023/07/31 05:30:05;;;;;;;10.27;5.00;;;16.60;99.90;;;;;;5072943;28;20024;-74
2023/07/31 05:32:31;;;;;;;11.60;5.03;;;16.70;99.90;;;;;;5073737;28;20020;-74
2023/07/31 05:34:56;;;;;;;11.43;5.28;;;16.80;99.90;;;;;;5072774;28;20025;-74
2023/07/31 05:37:22;;;;;;;8.60;4.68;;;16.80;99.90;;;;;;5074267;28;20020;-75
2023/07/31 05:39:48;;;;;;;12.02;4.60;;;16.80;99.90;;;;;;5073426;28;20047;-75
2023/07/31 05:42:13;;;;;;;12.05;5.57;;;16.80;99.90;;;;;;5074069;28;20061;-74
2023/07/31 05:44:39;;;;;;;8.43;5.07;;;16.80;99.90;;;;;;5071357;28;20028;-73
2023/07/31 05:47:05;;;;;;;6.97;4.28;;;16.90;99.90;;;;;;5071389;28;20025;-74
2023/07/31 05:49:31;;;;;;;12.65;5.28;;;17.00;99.90;;;;;;5070518;28;20035;-74
2023/07/31 05:51:56;;;;;;;12.93;5.03;;;17.00;99.90;;;;;;5069992;28;20025;-74
2023/07/31 05:54:22;;;;;;;7.43;5.22;;;17.10;99.90;;;;;;5069017;28;20044;-74
2023/07/31 05:56:48;;;;;;;13.48;5.53;;;17.20;99.90;;;;;;5056697;28;20491;-74
2023/07/31 05:59:13;;;;;;;8.40;4.97;;;17.30;99.90;;;;;;5070637;28;20028;-73
2023/07/31 06:01:39;;;;;;;11.27;4.93;;;17.40;99.90;;;;;;5069529;28;20070;-74
2023/07/31 06:04:05;;;;;;;12.00;4.93;;;17.40;99.90;;;;;;5070937;28;20047;-74
2023/07/31 06:06:31;;;;;;;9.05;4.53;;;17.50;99.90;;;;;;5065232;28;20024;-76
2023/07/31 06:08:56;;;;;;;11.95;4.00;;;17.60;99.90;;;;;;5072468;28;20536;-75
2023/07/31 06:11:23;;;;;;;13.13;4.88;;;17.70;99.90;;;;;;5067841;28;20077;-76
2023/07/31 06:13:49;;;;;;;8.98;4.45;;;17.70;99.90;;;;;;5066281;28;20476;-75
2023/07/31 06:16:16;;;;;;;11.05;5.05;;;17.80;99.90;;;;;;5063582;28;20033;-75
2023/07/31 06:18:42;;;;;;;12.93;4.68;;;17.80;99.90;;;;;;5061021;28;20497;-75
2023/07/31 06:21:09;;;;;;;10.05;4.80;;;17.90;99.90;;;;;;5056616;28;20087;-76
2023/07/31 06:23:35;;;;;;;10.43;4.55;;;18.00;99.90;;;;;;5055144;28;20779;-75
2023/07/31 06:26:01;;;;;;;9.98;4.32;;;18.00;99.90;;;;;;5057340;28;20090;-76
2023/07/31 06:28:31;;;;;;;11.05;3.65;;;18.00;99.90;;;;;;5067448;28;20033;-77
2023/07/31 06:30:57;;;;;;;12.13;5.30;;;18.10;99.90;;;;;;5063073;28;20033;-75
2023/07/31 06:33:23;;;;;;;13.32;4.40;;;18.10;99.90;;;;;;5067064;28;20032;-74
2023/07/31 06:35:49;;;;;;;10.27;4.75;;;18.20;99.90;;;;;;5062894;28;20014;-79
2023/07/31 06:38:15;;;;;;;13.27;3.97;;;18.30;99.90;;;;;;5066729;28;20032;-76
2023/07/31 06:40:40;;;;;;;10.98;4.63;;;18.40;99.90;;;;;;5062678;28;20397;-77
2023/07/31 06:43:07;;;;;;;13.45;6.68;;;18.40;99.90;;;;;;5074244;28;20040;-77
2023/07/31 06:45:34;;;;;;;15.88;4.38;;;18.40;99.90;;;;;;5066846;28;20029;-73
2023/07/31 06:48:01;;;;;;;12.98;4.68;;;18.50;99.90;;;;;;5066049;28;20025;-73
2023/07/31 06:50:31;;;;;;;7.70;3.85;;;18.40;99.90;;;;;;5062171;28;20025;-74
2023/07/31 06:52:57;;;;;;;9.93;3.67;;;18.50;99.90;;;;;;5065233;28;20031;-77
2023/07/31 06:55:23;;;;;;;11.48;4.45;;;18.60;99.90;;;;;;5063249;28;20095;-78
2023/07/31 06:57:51;;;;;;;8.73;4.35;;;18.60;99.90;;;;;;5064084;28;20029;-77
2023/07/31 07:00:18;;;;;;;11.70;4.45;;;18.70;99.90;;;;;;5061245;28;20021;-74
2023/07/31 07:02:44;;;;;;;9.02;3.72;;;18.70;99.90;;;;;;5054643;28;20029;-74
2023/07/31 07:05:10;;;;;;;7.22;3.65;;;18.80;99.90;;;;;;5071826;28;20033;-74
2023/07/31 07:07:36;;;;;;;13.18;5.15;;;18.90;99.90;;;;;;5064308;28;20078;-74
2023/07/31 07:10:03;;;;;;;10.10;4.55;;;19.00;99.90;;;;;;5074076;28;20025;-74
2023/07/31 07:12:33;;;;;;;13.93;4.50;;;19.10;99.90;;;;;;5068625;28;20025;-74
2023/07/31 07:14:59;;;;;;;10.13;3.87;;;19.20;99.90;;;;;;5059587;28;20021;-74
2023/07/31 07:17:32;;;;;;;9.80;4.45;;;19.30;99.90;;;;;;5062032;28;20032;-75
2023/07/31 07:19:58;;;;;;;10.98;4.20;;;19.40;99.90;;;;;;5060718;28;20041;-77
2023/07/31 07:22:24;;;;;;;8.05;4.53;;;19.50;99.90;;;;;;5042966;28;20099;-74
2023/07/31 07:24:50;;;;;;;11.68;5.00;;;19.50;99.90;;;;;;5055878;28;20087;-75
2023/07/31 07:27:16;;;;;;;12.30;4.38;;;19.60;99.90;;;;;;5056285;28;20029;-74
2023/07/31 07:29:41;;;;;;;8.05;4.00;;;19.60;99.90;;;;;;5055444;28;20017;-74
2023/07/31 07:32:07;;;;;;;13.10;4.57;;;19.60;99.90;;;;;;5059019;28;20032;-75
2023/07/31 07:34:33;;;;;;;6.22;3.40;;;19.60;99.90;;;;;;5058961;28;20078;-75
2023/07/31 07:36:59;;;;;;;13.82;5.03;;;19.70;99.90;;;;;;5045731;28;20024;-75
2023/07/31 07:39:24;;;;;;;10.80;4.78;;;19.70;99.90;;;;;;5070949;28;20024;-75
2023/07/31 07:41:50;;;;;;;11.85;3.70;;;19.90;99.90;;;;;;5068217;28;20112;-75
2023/07/31 07:44:16;;;;;;;8.48;4.25;;;19.90;99.90;;;;;;5077534;28;20043;-77
2023/07/31 07:46:42;;;;;;;9.30;4.38;;;20.00;99.90;;;;;;5071401;28;20472;-76
2023/07/31 07:49:07;;;;;;;11.30;4.35;;;20.10;99.90;;;;;;5072500;28;20104;-76
2023/07/31 07:51:33;;;;;;;12.02;4.47;;;20.20;99.90;;;;;;5077238;28;20447;-76
2023/07/31 07:53:59;;;;;;;14.50;4.45;;;20.30;99.90;;;;;;5078175;28;20031;-76
2023/07/31 07:56:26;;;;;;;12.02;3.95;;;20.40;99.90;;;;;;5078021;28;20100;-76
2023/07/31 07:58:53;;;;;;;9.68;3.95;;;20.50;99.90;;;;;;5074254;28;20050;-73
2023/07/31 08:01:19;;;;;;;9.98;4.22;;;20.50;99.90;;;;;;5069779;28;20039;-74
2023/07/31 08:03:44;;;;;;;12.45;4.07;;;20.40;99.90;;;;;;5074136;28;20024;-77
2023/07/31 08:06:10;;;;;;;7.82;3.85;;;20.40;99.90;;;;;;5068058;28;20033;-76
2023/07/31 08:08:36;;;;;;;12.85;4.30;;;20.50;99.90;;;;;;5074093;28;20029;-76
2023/07/31 08:11:02;;;;;;;10.88;4.90;;;20.60;99.90;;;;;;5069029;28;20029;-75
2023/07/31 08:13:28;;;;;;;9.02;4.03;;;20.60;99.90;;;;;;5073814;28;20081;-74
2023/07/31 08:15:54;;;;;;;13.38;4.13;;;20.70;99.90;;;;;;5068763;28;20104;-77
2023/07/31 08:18:20;;;;;;;6.97;4.15;;;20.70;99.90;;;;;;5062328;28;20028;-76
2023/07/31 08:20:46;;;;;;;7.80;4.00;;;20.70;99.90;;;;;;5062624;28;20481;-76
2023/07/31 08:23:12;;;;;;;13.70;3.60;;;20.80;99.90;;;;;;5062168;28;20041;-75
2023/07/31 08:25:38;;;;;;;9.23;3.42;;;20.90;99.90;;;;;;5062196;28;20033;-77
2023/07/31 08:28:04;;;;;;;12.60;3.85;;;21.00;99.90;;;;;;5062666;28;20029;-75
2023/07/31 08:30:30;;;;;;;9.93;3.55;;;21.10;99.90;;;;;;5060870;28;20102;-77
2023/07/31 08:32:56;;;;;;;10.40;3.47;;;21.20;99.90;;;;;;5063363;28;20024;-76
2023/07/31 08:35:22;;;;;;;9.38;3.67;;;21.10;99.90;;;;;;5062266;28;20099;-76
2023/07/31 08:37:48;;;;;;;7.82;4.10;;;21.20;99.90;;;;;;5063541;28;20102;-77
2023/07/31 08:40:13;;;;;;;8.50;3.42;;;21.30;99.90;;;;;;5061069;28;20068;-76
2023/07/31 08:42:50;;;;;;;11.05;3.92;;;21.40;99.90;;;;;;5062629;28;20025;-76
2023/07/31 08:45:17;;;;;;;11.32;4.25;;;21.40;99.90;;;;;;5061024;28;20037;-77
2023/07/31 08:47:51;;;;;;;8.70;3.72;;;21.50;99.90;;;;;;5064180;28;20476;-76
2023/07/31 08:50:18;;;;;;;7.28;3.75;;;21.50;99.90;;;;;;5060687;28;20108;-75
2023/07/31 08:52:45;;;;;;;10.60;4.00;;;21.60;99.90;;;;;;5060029;28;20499;-75
2023/07/31 08:55:11;;;;;;;8.95;4.10;;;21.70;99.90;;;;;;5058639;28;20029;-77
2023/07/31 08:57:38;;;;;;;7.75;3.65;;;21.80;99.90;;;;;;5059716;28;20366;-76
2023/07/31 09:00:08;;;;;;;7.30;3.40;;;21.90;99.90;;;;;;5058326;28;20484;-76
2023/07/31 09:02:48;;;;;;;7.47;3.55;;;21.90;99.90;;;;;;5057845;28;20392;-75
2023/07/31 09:05:15;;;;;;;10.13;4.32;;;22.10;99.90;;;;;;5058415;28;20098;-76
2023/07/31 09:07:42;;;;;;;9.82;3.38;;;22.10;99.90;;;;;;5059720;28;20025;-75
2023/07/31 09:10:08;;;;;;;5.93;2.80;;;22.20;99.90;;;;;;5057919;28;20074;-77
2023/07/31 09:12:34;;;;;;;10.40;3.95;;;22.30;99.90;;;;;;5058787;28;20024;-77
2023/07/31 09:15:00;;;;;;;6.00;3.05;;;22.30;99.90;;;;;;5058017;28;20496;-76
2023/07/31 09:17:31;;;;;;;9.50;3.42;;;22.40;99.90;;;;;;5059673;28;20033;-77
2023/07/31 09:19:58;;;;;;;7.88;3.42;;;22.50;99.90;;;;;;5058096;28;20025;-76
2023/07/31 09:22:42;;;;;;;6.95;3.58;;;22.40;99.90;;;;;;5059557;28;20025;-76
2023/07/31 09:25:18;;;;;;;8.27;2.42;;;22.50;99.90;;;;;;5059473;28;20137;-76
2023/07/31 09:27:58;;;;;;;4.25;2.53;;;22.50;99.90;;;;;;5057668;28;20032;-75
2023/07/31 09:30:24;;;;;;;6.07;3.33;;;22.70;99.90;;;;;;5068617;28;20511;-75
2023/07/31 09:32:52;;;;;;;8.30;3.08;;;22.90;99.90;;;;;;5070164;28;20021;-76
2023/07/31 09:35:28;;;;;;;12.65;3.58;;;22.90;99.90;;;;;;5066140;28;20017;-76
2023/07/31 09:37:56;;;;;;;6.25;2.70;;;23.10;99.90;;;;;;5058020;28;20017;-75
2023/07/31 09:40:27;;;;;;;5.57;3.05;;;23.10;99.90;;;;;;5072619;28;20028;-76
2023/07/31 09:42:57;;;;;;;5.93;2.60;;;23.20;99.90;;;;;;5064159;28;20104;-76
2023/07/31 09:45:23;;;;;;;8.50;2.40;;;23.20;99.90;;;;;;5062624;28;20037;-75
2023/07/31 09:47:49;;;;;;;9.15;2.72;;;23.10;99.90;;;;;;5066831;28;20468;-76
2023/07/31 09:50:18;;;;;;;5.43;2.72;;;23.20;99.90;;;;;;5059851;28;20118;-75
2023/07/31 09:52:43;;;;;;;6.15;2.28;;;23.20;99.90;;;;;;5063891;28;20020;-74
2023/07/31 09:55:10;;;;;;;5.20;2.58;;;23.20;99.90;;;;;;5061001;28;20086;-76
2023/07/31 09:57:47;;;;;;;6.13;2.55;;;23.30;99.90;;;;;;5048064;28;20016;-75
2023/07/31 10:00:15;;;;;;;6.75;3.30;;;23.40;99.90;;;;;;5062585;28;20070;-76
2023/07/31 10:02:44;;;;;;;7.75;2.70;;;23.50;99.90;;;;;;5066108;28;20020;-76
2023/07/31 10:05:14;;;;;;;7.35;2.67;;;23.70;99.90;;;;;;5074244;28;20028;-75
2023/07/31 10:07:42;;;;;;;6.93;2.33;;;23.80;99.90;;;;;;5072651;28;20485;-75
2023/07/31 10:10:11;;;;;;;4.47;2.40;;;23.90;99.90;;;;;;5073902;28;20036;-78
2023/07/31 10:12:38;;;;;;;6.20;2.22;;;23.90;99.90;;;;;;5072586;28;20028;-76
2023/07/31 10:15:04;;;;;;;4.05;2.47;;;23.70;99.90;;;;;;5067992;28;20428;-75
2023/07/31 10:17:31;;;;;;;4.53;2.58;;;23.50;99.90;;;;;;5061756;28;20784;-75
2023/07/31 10:20:01;;;;;;;4.78;2.30;;;23.70;99.90;;;;;;5065854;28;20063;-76
2023/07/31 10:22:27;;;;;;;4.00;2.42;;;23.90;99.90;;;;;;5057310;28;20033;-76
2023/07/31 10:24:55;;;;;;;5.78;2.65;;;24.00;99.90;;;;;;5056361;28;20086;-76
2023/07/31 10:27:20;;;;;;;4.22;1.90;;;23.90;99.90;;;;;;5057020;28;20104;-77
2023/07/31 10:29:48;;;;;;;7.00;2.67;;;23.90;99.90;;;;;;5064597;28;20059;-77
2023/07/31 10:32:16;;;;;;;5.22;1.90;;;24.00;99.90;;;;;;5060258;28;20030;-77
2023/07/31 10:34:42;;;;;;;4.53;1.90;;;24.10;99.90;;;;;;5067840;28;20399;-76
2023/07/31 10:37:22;;;;;;;5.00;2.25;;;24.00;99.90;;;;;;5047892;28;20071;-74
2023/07/31 10:40:20;;;;;;;4.43;2.30;;;24.00;99.90;;;;;;5064164;28;20028;-75
2023/07/31 10:42:53;;;;;;;8.57;2.40;;;23.80;99.90;;;;;;5074213;28;20500;-75
2023/07/31 10:45:30;;;;;;;10.07;4.25;;;23.90;99.90;;;;;;5073687;28;20029;-76
2023/07/31 10:48:03;;;;;;;4.80;2.13;;;23.80;99.90;;;;;;5065108;28;20055;-77
2023/07/31 10:50:32;;;;;;;5.20;2.47;;;24.00;99.90;;;;;;5059587;28;20096;-75
2023/07/31 10:53:00;;;;;;;5.47;2.40;;;24.10;99.90;;;;;;5062834;28;20055;-75
2023/07/31 10:55:38;;;;;;;8.73;3.33;;;24.40;99.90;;;;;;5060173;28;20547;-76
2023/07/31 10:58:14;;;;;;;4.85;2.25;;;24.40;99.90;;;;;;5060675;28;20032;-76
2023/07/31 11:00:41;;;;;;;4.53;2.28;;;24.50;99.90;;;;;;5062900;28;20103;-77
2023/07/31 11:03:12;;;;;;;4.45;2.63;;;24.40;99.90;;;;;;5067375;28;20048;-78
2023/07/31 11:06:03;;;;;;;4.57;2.45;;;24.30;99.90;;;;;;5074671;28;20072;-76
2023/07/31 11:08:34;;;;;;;4.95;2.40;;;24.20;99.90;;;;;;5054799;28;20097;-76
2023/07/31 11:11:02;;;;;;;6.85;2.65;;;24.30;99.90;;;;;;5073656;28;20029;-76
2023/07/31 11:13:50;;;;;;;8.07;2.50;;;24.40;99.90;;;;;;5076301;28;20021;-76
2023/07/31 11:16:17;;;;;;;8.95;2.67;;;24.60;99.90;;;;;;5074115;28;20392;-77
2023/07/31 11:18:44;;;;;;;4.28;2.17;;;24.80;99.90;;;;;;5075469;28;20026;-76
2023/07/31 11:21:19;;;;;;;5.30;2.40;;;24.90;99.90;;;;;;5070563;28;20020;-78
2023/07/31 11:23:49;;;;;;;4.80;2.75;;;25.00;99.90;;;;;;5067624;28;20083;-76
2023/07/31 11:26:16;;;;;;;8.75;2.72;;;25.10;99.90;;;;;;5069381;28;20068;-79
2023/07/31 11:28:45;;;;;;;6.45;2.30;;;25.20;99.90;;;;;;5060563;28;20021;-75
2023/07/31 11:31:10;;;;;;;6.90;2.63;;;25.10;99.90;;;;;;5077425;28;20029;-77
2023/07/31 11:33:37;;;;;;;5.38;2.53;;;25.00;99.90;;;;;;5072996;28;20469;-76
2023/07/31 11:36:02;;;;;;;7.90;2.92;;;24.80;99.90;;;;;;5062618;28;20027;-77
2023/07/31 11:38:37;;;;;;;7.43;2.85;;;25.00;99.90;;;;;;5066177;28;20100;-76
2023/07/31 11:41:04;;;;;;;6.57;2.25;;;24.90;99.90;;;;;;5063973;28;20047;-77
2023/07/31 11:43:31;;;;;;;5.55;2.45;;;24.90;99.90;;;;;;5073412;28;20064;-76
2023/07/31 11:45:59;;;;;;;3.58;2.40;;;25.00;99.90;;;;;;5075605;28;20043;-78
2023/07/31 11:48:26;;;;;;;4.15;2.35;;;25.20;99.90;;;;;;5073479;28;20032;-73
2023/07/31 11:51:00;;;;;;;5.05;2.38;;;25.30;99.90;;;;;;5075100;28;20028;-74
2023/07/31 11:53:30;;;;;;;5.18;1.92;;;25.30;99.90;;;;;;5061765;28;20074;-78
2023/07/31 11:55:58;;;;;;;4.45;2.92;;;25.20;99.90;;;;;;5064689;28;20024;-74
2023/07/31 11:58:25;;;;;;;5.03;2.80;;;25.20;99.90;;;;;;5061711;28;20033;-76
2023/07/31 12:00:51;;;;;;;4.55;2.22;;;25.10;99.90;;;;;;5071931;28;20028;-77
2023/07/31 12:03:18;;;;;;;4.20;2.55;;;25.20;99.90;;;;;;5063101;28;20059;-79
2023/07/31 12:05:44;;;;;;;5.28;2.50;;;25.30;99.90;;;;;;5057981;28;20044;-75
2023/07/31 12:08:15;;;;;;;11.23;2.70;;;25.50;99.90;;;;;;5060908;28;20031;-77
2023/07/31 12:10:41;;;;;;;6.18;2.40;;;25.70;99.90;;;;;;5070581;28;20029;-77
2023/07/31 12:13:15;;;;;;;4.00;2.20;;;25.60;99.90;;;;;;5053702;28;20040;-76
2023/07/31 12:15:44;;;;;;;5.07;2.55;;;25.50;99.90;;;;;;5059185;28;20112;-76
2023/07/31 12:18:15;;;;;;;4.72;2.30;;;25.70;99.90;;;;;;5063234;28;20103;-76
2023/07/31 12:20:49;;;;;;;10.82;2.67;;;25.80;99.90;;;;;;5048250;28;20064;-76
2023/07/31 12:23:29;;;;;;;4.82;2.10;;;26.00;99.90;;;;;;5062397;28;20045;-79
2023/07/31 12:26:01;;;;;;;4.93;2.40;;;25.90;99.90;;;;;;5061119;28;20025;-75
2023/07/31 12:28:27;;;;;;;7.45;2.85;;;26.00;99.90;;;;;;5063652;28;20133;-77
2023/07/31 12:30:58;;;;;;;5.72;2.33;;;26.20;99.90;;;;;;5060419;28;20024;-79
2023/07/31 12:33:23;;;;;;;6.63;2.47;;;26.20;99.90;;;;;;5063752;28;20031;-76
2023/07/31 12:35:49;;;;;;;4.15;2.15;;;26.30;99.10;;;;;;5070951;28;20025;-76
2023/07/31 12:38:15;;;;;;;6.03;2.38;;;26.30;99.10;;;;;;5069799;28;20046;-76
2023/07/31 12:40:41;;;;;;;7.05;2.35;;;26.40;99.40;;;;;;5071280;28;20083;-76
2023/07/31 12:43:08;;;;;;;5.13;2.55;;;26.40;99.90;;;;;;5070832;28;20028;-76
2023/07/31 12:45:34;;;;;;;5.80;2.60;;;26.50;99.30;;;;;;5071395;28;20429;-78